NAS Jacksonville

About
Name: NAS Jacksonville
Identifier:  NIP/KNIP
Operator:  United States Navy
Public/Private:  Military: Naval Air Station
Local Time:  20. Aug 10:24 EDT
Description: Coordinates: 30°14′09″N 081°40′50″W / 30.23583°N 81.68056°W / 30.23583; -81.68056
Source: Wikipedia
Location
Jacksonville
  United States

Runways
Identifier Length (m/ft) Surface
10/28 9,003/9,003 Asphalt
Flights per Day
0 flights
Distance: 1,109km (689mi)
Punctuality
50% (0 flights per day delayed)
Delay Average: 1180 minutes
Current Weather
 28 C (Humidity: 74%)
  0kt (0km/h / 0mph) from 0°
  Few clouds at 2,000 feet (609 meter)
  Broken clouds at 22,000 feet (6,705 meter)
  16km (10 mi.)
 METAR KNIP 201353Z 00000KT 10SM FEW020 BKN220 28/23 A3015 RMK AO2 SLP204 TCU DSNT SE T02780228

Current Flights

Departures
Number Departure To Airline
Arrivals
Number Arrival From Airline
 SY8990 07:30 +175  Norfolk  Sun Country Airlines

Current Delays

Departures
N/A
Arrivals
N/A

Destinations

Top Destinations
Airport Flights
per week
Seats
per week
  Norfolk (NGU) 2 316 0 45
  Guantanamo (NBW) 2 276 0 39

Airlines & Planes

Top Airlines
Airline Flights
per Day
Seats
per Day
  Miami Air International 0 63
  Sun Country Airlines 0 21
Top Plane Types
Model Flights Seats
Boeing B737-800 0.7/day 84/day 84.66666666666667